createdAt,value
2017-08-05T00:00:30.542Z,967.21
2017-08-05T00:01:40.500Z,967.25
2017-08-05T00:02:50.453Z,967.27
2017-08-05T00:04:00.724Z,967.28
2017-08-05T00:05:10.994Z,967.27
2017-08-05T00:06:21.267Z,967.31
2017-08-05T00:07:31.541Z,967.33
2017-08-05T00:08:41.500Z,967.28
2017-08-05T00:09:51.461Z,967.33
2017-08-05T00:11:01.419Z,967.29
2017-08-05T00:12:11.692Z,967.32
2017-08-05T00:13:21.959Z,967.33
2017-08-05T00:14:32.247Z,967.36
2017-08-05T00:15:42.211Z,967.34
2017-08-05T00:16:52.482Z,967.33
2017-08-05T00:18:02.481Z,967.37
2017-08-05T00:19:12.752Z,967.4
2017-08-05T00:20:23.024Z,967.35
2017-08-05T00:21:32.980Z,967.43
2017-08-05T00:22:43.246Z,967.42
2017-08-05T00:23:53.530Z,967.4
2017-08-05T00:25:03.805Z,967.44
2017-08-05T00:26:14.077Z,967.45
2017-08-05T00:27:24.348Z,967.43
2017-08-05T00:28:34.616Z,967.44
2017-08-05T00:29:44.883Z,967.47
2017-08-05T00:30:55.155Z,967.43
2017-08-05T00:32:05.112Z,967.47
2017-08-05T00:33:15.072Z,967.53
2017-08-05T00:34:25.342Z,967.48
2017-08-05T00:35:35.619Z,967.51
2017-08-05T00:36:45.894Z,967.49
2017-08-05T00:37:56.175Z,967.49
2017-08-05T00:39:06.444Z,967.52
2017-08-05T00:40:16.718Z,967.51
2017-08-05T00:41:26.990Z,967.54
2017-08-05T00:42:37.267Z,967.5
2017-08-05T00:43:47.539Z,967.54
2017-08-05T00:44:57.816Z,967.53
2017-08-05T00:46:08.092Z,967.55
2017-08-05T00:47:18.049Z,967.56
2017-08-05T00:48:28.006Z,967.55
2017-08-05T00:49:37.978Z,967.58
2017-08-05T00:50:48.248Z,967.57
2017-08-05T00:51:58.531Z,967.57
2017-08-05T00:53:08.799Z,967.57
2017-08-05T00:54:19.083Z,967.59
2017-08-05T00:55:29.357Z,967.58
2017-08-05T00:56:39.646Z,967.58
2017-08-05T00:57:49.917Z,967.59
2017-08-05T00:58:59.867Z,967.59
2017-08-05T01:00:10.134Z,967.63
2017-08-05T01:01:20.403Z,967.58
2017-08-05T01:02:30.679Z,967.63
2017-08-05T01:03:40.947Z,967.59
2017-08-05T01:04:51.225Z,967.64
2017-08-05T01:06:01.495Z,967.64
2017-08-05T01:07:11.455Z,967.71
2017-08-05T01:08:21.726Z,967.66
2017-08-05T01:09:32.013Z,967.69
2017-08-05T01:10:41.973Z,967.71
2017-08-05T01:11:52.245Z,967.69
2017-08-05T01:13:02.511Z,967.73
2017-08-05T01:14:12.786Z,967.72
2017-08-05T01:15:23.061Z,967.74
2017-08-05T01:16:33.332Z,967.73
2017-08-05T01:17:43.614Z,967.75
2017-08-05T01:18:53.881Z,967.73
2017-08-05T01:20:04.152Z,967.73
2017-08-05T01:21:13.799Z,967.76
2017-08-05T01:22:23.755Z,967.78
2017-08-05T01:23:34.028Z,967.76
2017-08-05T01:24:44.302Z,967.76
2017-08-05T01:25:54.570Z,967.78
2017-08-05T01:27:04.839Z,967.78
2017-08-05T01:28:15.108Z,967.78
2017-08-05T01:29:25.383Z,967.76
2017-08-05T01:30:35.677Z,967.79
2017-08-05T01:31:45.949Z,967.78
2017-08-05T01:32:56.233Z,967.81
2017-08-05T01:34:06.511Z,967.8
2017-08-05T01:35:16.471Z,967.8
2017-08-05T01:36:26.745Z,967.81
2017-08-05T01:37:37.014Z,967.84
2017-08-05T01:38:47.303Z,967.81
2017-08-05T01:39:57.263Z,967.82
2017-08-05T01:41:07.536Z,967.83
2017-08-05T01:42:17.501Z,967.85
2017-08-05T01:43:27.797Z,967.9
2017-08-05T01:44:38.069Z,967.86
2017-08-05T01:45:48.343Z,967.86
2017-08-05T01:46:58.644Z,967.88
2017-08-05T01:48:08.295Z,967.88
2017-08-05T01:49:18.565Z,967.9
2017-08-05T01:50:28.523Z,967.9
2017-08-05T01:51:38.787Z,967.9
2017-08-05T01:52:49.061Z,967.91
2017-08-05T01:53:59.338Z,967.94
2017-08-05T01:55:09.615Z,967.97
2017-08-05T01:56:19.573Z,967.95
2017-08-05T01:57:29.847Z,967.96
2017-08-05T01:58:40.124Z,967.98
2017-08-05T01:59:50.078Z,967.97
2017-08-05T02:01:00.349Z,967.98
2017-08-05T02:02:10.630Z,968.01
2017-08-05T02:03:20.591Z,968.01
2017-08-05T02:04:30.863Z,967.98
2017-08-05T02:05:40.505Z,968.04
2017-08-05T02:06:50.456Z,968.04
2017-08-05T02:08:00.734Z,968.04
2017-08-05T02:09:10.847Z,968.04
2017-08-05T02:10:21.120Z,968.05
2017-08-05T02:11:31.397Z,968.01
2017-08-05T02:12:41.672Z,968.09
2017-08-05T02:13:51.939Z,968.07
2017-08-05T02:15:02.209Z,968.09
2017-08-05T02:16:12.485Z,968.07
2017-08-05T02:17:22.756Z,968.11
2017-08-05T02:18:33.024Z,968.08
2017-08-05T02:19:42.981Z,968.1
2017-08-05T02:20:53.250Z,968.05
2017-08-05T02:22:03.207Z,968.1
2017-08-05T02:23:13.180Z,968.05
2017-08-05T02:24:23.461Z,968.08
2017-08-05T02:25:33.734Z,968.1
2017-08-05T02:26:43.793Z,968.08
2017-08-05T02:27:53.745Z,968.11
2017-08-05T02:29:03.082Z,968.1
2017-08-05T02:30:13.350Z,968.12
2017-08-05T02:31:23.625Z,968.1
2017-08-05T02:32:33.897Z,968.15
2017-08-05T02:33:44.185Z,968.12
2017-08-05T02:34:54.456Z,968.17
2017-08-05T02:36:04.731Z,968.15
2017-08-05T02:37:14.386Z,968.18
2017-08-05T02:38:24.658Z,968.19
2017-08-05T02:39:34.934Z,968.2
2017-08-05T02:40:45.222Z,968.2
2017-08-05T02:41:55.498Z,968.23
2017-08-05T02:43:05.775Z,968.23
2017-08-05T02:44:16.052Z,968.24
2017-08-05T02:45:26.324Z,968.28
2017-08-05T02:46:36.598Z,968.25
2017-08-05T02:47:46.883Z,968.25
2017-08-05T02:48:57.180Z,968.29
2017-08-05T02:50:07.465Z,968.33
2017-08-05T02:51:17.738Z,968.34
2017-08-05T02:52:28.009Z,968.35
2017-08-05T02:53:38.293Z,968.36
2017-08-05T02:54:48.247Z,968.37
2017-08-05T02:55:58.516Z,968.37
2017-08-05T02:57:08.474Z,968.35
2017-08-05T02:58:18.749Z,968.38
2017-08-05T02:59:29.019Z,968.36
2017-08-05T03:00:39.293Z,968.35
2017-08-05T03:01:49.567Z,968.36
2017-08-05T03:02:59.840Z,968.38
2017-08-05T03:04:10.108Z,968.34
2017-08-05T03:05:20.379Z,968.35
2017-08-05T03:06:30.666Z,968.36
2017-08-05T03:07:40.937Z,968.39
2017-08-05T03:08:50.583Z,968.39
2017-08-05T03:10:00.854Z,968.37
2017-08-05T03:11:10.499Z,968.39
2017-08-05T03:12:20.458Z,968.44
2017-08-05T03:13:30.728Z,968.42
2017-08-05T03:14:41.003Z,968.42
2017-08-05T03:15:50.966Z,968.47
2017-08-05T03:17:00.930Z,968.47
2017-08-05T03:18:10.578Z,968.45
2017-08-05T03:19:20.537Z,968.48
2017-08-05T03:20:30.492Z,968.48
2017-08-05T03:21:40.760Z,968.48
2017-08-05T03:22:51.040Z,968.48
2017-08-05T03:24:01.332Z,968.48
2017-08-05T03:25:11.613Z,968.51
2017-08-05T03:26:21.885Z,968.53
2017-08-05T03:27:32.160Z,968.5
2017-08-05T03:28:42.133Z,968.54
2017-08-05T03:29:51.776Z,968.49
2017-08-05T03:31:02.046Z,968.52
2017-08-05T03:32:12.328Z,968.51
2017-08-05T03:33:22.598Z,968.53
2017-08-05T03:34:32.866Z,968.56
2017-08-05T03:35:43.138Z,968.52
2017-08-05T03:36:53.096Z,968.57
2017-08-05T03:38:03.377Z,968.61
2017-08-05T03:39:13.336Z,968.62
2017-08-05T03:40:23.604Z,968.58
2017-08-05T03:41:33.892Z,968.6
2017-08-05T03:42:44.165Z,968.61
2017-08-05T03:43:54.434Z,968.59
2017-08-05T03:45:04.709Z,968.59
2017-08-05T03:46:14.983Z,968.59
2017-08-05T03:47:25.252Z,968.62
2017-08-05T03:48:35.517Z,968.61
2017-08-05T03:49:45.792Z,968.61
2017-08-05T03:50:56.062Z,968.56
2017-08-05T03:52:06.335Z,968.59
2017-08-05T03:53:16.291Z,968.59
2017-08-05T03:54:26.272Z,968.62
2017-08-05T03:55:36.551Z,968.69
2017-08-05T03:56:46.821Z,968.63
2017-08-05T03:57:57.092Z,968.62
2017-08-05T03:59:07.368Z,968.65
2017-08-05T04:00:17.323Z,968.68
2017-08-05T04:01:27.594Z,968.67
2017-08-05T04:02:37.871Z,968.71
2017-08-05T04:03:48.143Z,968.71
2017-08-05T04:04:58.418Z,968.7
2017-08-05T04:06:08.688Z,968.71
2017-08-05T04:07:18.963Z,968.75
2017-08-05T04:08:29.235Z,968.72
2017-08-05T04:09:39.505Z,968.71
2017-08-05T04:10:49.774Z,968.77
2017-08-05T04:12:00.051Z,968.77
2017-08-05T04:13:09.697Z,968.76
2017-08-05T04:14:19.977Z,968.73
2017-08-05T04:15:30.246Z,968.76
2017-08-05T04:16:40.518Z,968.76
2017-08-05T04:17:50.786Z,968.77
2017-08-05T04:19:01.082Z,968.78
2017-08-05T04:20:11.052Z,968.81
2017-08-05T04:21:21.330Z,968.79
2017-08-05T04:22:31.601Z,968.81
2017-08-05T04:23:41.865Z,968.86
2017-08-05T04:24:51.822Z,968.87
2017-08-05T04:26:01.786Z,968.83
2017-08-05T04:27:11.750Z,968.89
2017-08-05T04:28:22.026Z,968.91
2017-08-05T04:29:32.297Z,968.9
2017-08-05T04:30:42.571Z,968.89
2017-08-05T04:31:52.845Z,968.92
2017-08-05T04:33:02.804Z,968.93
2017-08-05T04:34:13.077Z,968.93
2017-08-05T04:35:23.034Z,968.95
2017-08-05T04:36:33.308Z,968.96
2017-08-05T04:37:43.588Z,968.94
2017-08-05T04:38:53.860Z,968.97
2017-08-05T04:40:04.132Z,968.98
2017-08-05T04:41:14.411Z,968.99
2017-08-05T04:42:24.050Z,968.99
2017-08-05T04:43:34.323Z,969.02
2017-08-05T04:44:44.599Z,969.04
2017-08-05T04:45:54.872Z,969.06
2017-08-05T04:47:05.149Z,969.1
2017-08-05T04:48:15.112Z,969.09
2017-08-05T04:49:25.392Z,969.09
2017-08-05T04:50:35.347Z,969.12
2017-08-05T04:51:45.306Z,969.14
2017-08-05T04:52:55.584Z,969.14
2017-08-05T04:54:05.866Z,969.15
2017-08-05T04:55:15.823Z,969.15
2017-08-05T04:56:26.102Z,969.15
2017-08-05T04:57:36.374Z,969.15
2017-08-05T04:58:46.650Z,969.13
2017-08-05T04:59:56.931Z,969.14
2017-08-05T05:01:06.896Z,969.18
2017-08-05T05:02:17.168Z,969.19
2017-08-05T05:03:27.447Z,969.19
2017-08-05T05:04:37.405Z,969.22
2017-08-05T05:05:47.364Z,969.21
2017-08-05T05:06:57.320Z,969.21
2017-08-05T05:08:07.587Z,969.23
2017-08-05T05:09:17.547Z,969.23
2017-08-05T05:10:27.819Z,969.24
2017-08-05T05:11:38.094Z,969.22
2017-08-05T05:12:48.064Z,969.24
2017-08-05T05:13:58.340Z,969.28
2017-08-05T05:15:08.620Z,969.25
2017-08-05T05:16:18.898Z,969.24
2017-08-05T05:17:28.858Z,969.31
2017-08-05T05:18:39.144Z,969.29
2017-08-05T05:19:49.102Z,969.31
2017-08-05T05:20:59.382Z,969.33
2017-08-05T05:22:09.656Z,969.31
2017-08-05T05:23:19.928Z,969.33
2017-08-05T05:24:30.202Z,969.31
2017-08-05T05:25:40.481Z,969.31
2017-08-05T05:26:50.759Z,969.33
2017-08-05T05:28:00.721Z,969.34
2017-08-05T05:29:10.370Z,969.33
2017-08-05T05:30:20.646Z,969.33
2017-08-05T05:31:30.919Z,969.36
2017-08-05T05:32:41.197Z,969.34
2017-08-05T05:33:51.156Z,969.38
2017-08-05T05:35:01.431Z,969.36
2017-08-05T05:36:11.706Z,969.37
2017-08-05T05:37:21.669Z,969.41
2017-08-05T05:38:31.939Z,969.39
2017-08-05T05:39:41.895Z,969.45
2017-08-05T05:40:52.172Z,969.43
2017-08-05T05:42:02.152Z,969.46
2017-08-05T05:43:12.108Z,969.47
2017-08-05T05:44:22.377Z,969.48
2017-08-05T05:45:32.334Z,969.52
2017-08-05T05:46:42.608Z,969.51
2017-08-05T05:47:52.879Z,969.57
2017-08-05T05:49:03.150Z,969.58
2017-08-05T05:50:13.424Z,969.57
2017-08-05T05:51:23.695Z,969.58
2017-08-05T05:52:33.968Z,969.56
2017-08-05T05:53:44.243Z,969.59
2017-08-05T05:54:54.199Z,969.59
2017-08-05T05:56:04.482Z,969.56
2017-08-05T05:57:14.440Z,969.62
2017-08-05T05:58:24.405Z,969.62
2017-08-05T05:59:34.680Z,969.64
2017-08-05T06:00:44.962Z,969.65
2017-08-05T06:01:55.243Z,969.68
2017-08-05T06:03:05.514Z,969.68
2017-08-05T06:04:15.787Z,969.69
2017-08-05T06:05:25.750Z,969.73
2017-08-05T06:06:36.028Z,969.73
2017-08-05T06:07:45.995Z,969.73
2017-08-05T06:08:55.954Z,969.74
2017-08-05T06:10:06.227Z,969.75
2017-08-05T06:11:16.187Z,969.73
2017-08-05T06:12:26.470Z,969.75
2017-08-05T06:13:36.745Z,969.75
2017-08-05T06:14:47.019Z,969.76
2017-08-05T06:15:56.981Z,969.78
2017-08-05T06:17:06.958Z,969.8
2017-08-05T06:18:17.236Z,969.81
2017-08-05T06:19:27.508Z,969.78
2017-08-05T06:20:37.779Z,969.85
2017-08-05T06:21:48.052Z,969.88
2017-08-05T06:22:58.324Z,969.89
2017-08-05T06:24:07.975Z,969.92
2017-08-05T06:25:18.247Z,969.92
2017-08-05T06:26:28.514Z,969.91
2017-08-05T06:27:38.472Z,969.92
2017-08-05T06:28:48.746Z,969.93
2017-08-05T06:29:58.706Z,969.93
2017-08-05T06:31:08.975Z,969.94
2017-08-05T06:32:18.945Z,969.95
2017-08-05T06:33:29.248Z,969.98
2017-08-05T06:34:39.207Z,969.96
2017-08-05T06:35:49.166Z,969.99
2017-08-05T06:36:58.823Z,969.96
2017-08-05T06:38:09.349Z,969.97
2017-08-05T06:39:19.622Z,969.99
2017-08-05T06:40:29.902Z,969.98
2017-08-05T06:41:40.183Z,970.01
2017-08-05T06:42:50.148Z,970
2017-08-05T06:44:00.428Z,970.02
2017-08-05T06:45:10.391Z,969.99
2017-08-05T06:46:20.665Z,970.06
2017-08-05T06:47:30.313Z,970.05
2017-08-05T06:48:40.268Z,970.07
2017-08-05T06:49:50.555Z,970.1
2017-08-05T06:51:00.831Z,970.13
2017-08-05T06:52:11.103Z,970.11
2017-08-05T06:53:21.057Z,970.12
2017-08-05T06:54:31.024Z,970.14
2017-08-05T06:55:40.670Z,970.18
2017-08-05T06:56:50.946Z,970.14
2017-08-05T06:58:01.225Z,970.16
2017-08-05T06:59:11.499Z,970.15
2017-08-05T07:00:21.791Z,970.18
2017-08-05T07:01:32.120Z,970.23
2017-08-05T07:02:42.100Z,970.17
2017-08-05T07:03:52.371Z,970.19
2017-08-05T07:05:02.331Z,970.22
2017-08-05T07:06:12.292Z,970.21
2017-08-05T07:07:22.564Z,970.23
2017-08-05T07:08:32.521Z,970.22
2017-08-05T07:09:42.485Z,970.24
2017-08-05T07:10:52.755Z,970.3
2017-08-05T07:12:03.044Z,970.27
2017-08-05T07:13:13.325Z,970.32
2017-08-05T07:14:23.605Z,970.27
2017-08-05T07:15:33.576Z,970.26
2017-08-05T07:16:43.849Z,970.25
2017-08-05T07:17:53.805Z,970.27
2017-08-05T07:19:04.079Z,970.26
2017-08-05T07:20:14.355Z,970.32
2017-08-05T07:21:24.314Z,970.33
2017-08-05T07:22:34.274Z,970.32
2017-08-05T07:23:44.548Z,970.34
2017-08-05T07:24:54.822Z,970.37
2017-08-05T07:26:04.781Z,970.37
2017-08-05T07:27:15.058Z,970.36
2017-08-05T07:28:25.330Z,970.41
2017-08-05T07:29:35.614Z,970.45
2017-08-05T07:30:45.577Z,970.45
2017-08-05T07:31:55.538Z,970.49
2017-08-05T07:33:05.190Z,970.45
2017-08-05T07:34:15.464Z,970.49
2017-08-05T07:35:25.739Z,970.51
2017-08-05T07:36:36.016Z,970.5
2017-08-05T07:37:46.286Z,970.53
2017-08-05T07:38:56.258Z,970.54
2017-08-05T07:40:06.239Z,970.5
2017-08-05T07:41:16.515Z,970.52
2017-08-05T07:42:26.478Z,970.57
2017-08-05T07:43:36.756Z,970.54
2017-08-05T07:44:46.731Z,970.54
2017-08-05T07:45:57.013Z,970.57
2017-08-05T07:47:07.298Z,970.57
2017-08-05T07:48:17.578Z,970.55
2017-08-05T07:49:27.857Z,970.58
2017-08-05T07:50:38.139Z,970.58
2017-08-05T07:51:48.413Z,970.58
2017-08-05T07:52:58.693Z,970.61
2017-08-05T07:54:08.967Z,970.61
2017-08-05T07:55:18.616Z,970.64
2017-08-05T07:56:28.893Z,970.62
2017-08-05T07:57:39.212Z,970.63
2017-08-05T07:58:49.493Z,970.65
2017-08-05T07:59:59.775Z,970.66
2017-08-05T08:01:09.763Z,970.67
2017-08-05T08:02:20.040Z,970.69
2017-08-05T08:03:30.325Z,970.68
2017-08-05T08:04:40.612Z,970.69
2017-08-05T08:05:50.896Z,970.73
2017-08-05T08:07:01.170Z,970.73
2017-08-05T08:08:10.815Z,970.71
2017-08-05T08:09:20.773Z,970.7
2017-08-05T08:10:31.052Z,970.74
2017-08-05T08:11:43.328Z,970.75
2017-08-05T08:12:53.602Z,970.78
2017-08-05T08:14:03.877Z,970.75
2017-08-05T08:15:14.153Z,970.79
2017-08-05T08:16:24.117Z,970.79
2017-08-05T08:17:34.397Z,970.8
2017-08-05T08:18:44.679Z,970.87
2017-08-05T08:19:54.955Z,970.82
2017-08-05T08:21:04.917Z,970.86
2017-08-05T08:22:15.195Z,970.84
2017-08-05T08:23:25.726Z,970.9
2017-08-05T08:24:36.008Z,970.88
2017-08-05T08:25:46.287Z,970.9
2017-08-05T08:26:56.249Z,970.94
2017-08-05T08:28:06.527Z,970.94
2017-08-05T08:29:16.799Z,970.94
2017-08-05T08:30:27.075Z,970.94
2017-08-05T08:31:37.347Z,970.96
2017-08-05T08:32:47.623Z,970.96
2017-08-05T08:33:57.902Z,970.99
2017-08-05T08:35:07.866Z,970.97
2017-08-05T08:36:18.137Z,971.02
2017-08-05T08:37:28.421Z,970.95
2017-08-05T08:38:38.698Z,970.97
2017-08-05T08:39:48.975Z,970.95
2017-08-05T08:40:59.261Z,970.98
2017-08-05T08:42:09.224Z,970.98
2017-08-05T08:43:19.183Z,970.99
2017-08-05T08:44:29.471Z,971
2017-08-05T08:45:39.753Z,971.01
2017-08-05T08:46:50.031Z,971.02
2017-08-05T08:48:00.316Z,971.06
2017-08-05T08:49:10.277Z,971.08
2017-08-05T08:50:20.555Z,971.08
2017-08-05T08:51:30.836Z,971.06
2017-08-05T08:52:41.116Z,971.13
2017-08-05T08:53:51.393Z,971.11
2017-08-05T08:55:01.670Z,971.13
2017-08-05T08:56:11.949Z,971.12
2017-08-05T08:57:21.913Z,971.14
2017-08-05T08:58:32.187Z,971.17
2017-08-05T08:59:42.465Z,971.17
2017-08-05T09:00:52.433Z,971.17
2017-08-05T09:02:02.712Z,971.17
2017-08-05T09:03:12.992Z,971.27
2017-08-05T09:04:23.262Z,971.28
2017-08-05T09:05:33.555Z,971.28
2017-08-05T09:06:43.847Z,971.31
2017-08-05T09:07:54.123Z,971.3
2017-08-05T09:09:04.400Z,971.36
2017-08-05T09:10:14.373Z,971.32
2017-08-05T09:11:24.652Z,971.33
2017-08-05T09:12:34.928Z,971.27
2017-08-05T09:13:45.205Z,971.28
2017-08-05T09:14:55.483Z,971.29
2017-08-05T09:16:05.444Z,971.29
2017-08-05T09:17:15.718Z,971.28
2017-08-05T09:18:25.680Z,971.29
2017-08-05T09:19:35.955Z,971.28
2017-08-05T09:20:45.918Z,971.29
2017-08-05T09:21:56.192Z,971.3
2017-08-05T09:23:06.152Z,971.29
2017-08-05T09:24:15.800Z,971.33
2017-08-05T09:25:26.078Z,971.34
2017-08-05T09:26:36.041Z,971.31
2017-08-05T09:27:46.012Z,971.35
2017-08-05T09:28:55.973Z,971.33
2017-08-05T09:30:05.933Z,971.31
2017-08-05T09:31:15.893Z,971.33
2017-08-05T09:32:25.857Z,971.34
2017-08-05T09:33:36.134Z,971.33
2017-08-05T09:34:46.414Z,971.31
2017-08-05T09:35:56.381Z,971.33
2017-08-05T09:37:06.347Z,971.32
2017-08-05T09:38:16.623Z,971.3
2017-08-05T09:39:26.925Z,971.29
2017-08-05T09:40:37.213Z,971.27
2017-08-05T09:41:47.507Z,971.29
2017-08-05T09:42:56.843Z,971.26
2017-08-05T09:44:07.119Z,971.28
2017-08-05T09:45:17.401Z,971.27
2017-08-05T09:46:27.678Z,971.28
2017-08-05T09:47:37.960Z,971.26
2017-08-05T09:48:48.243Z,971.29
2017-08-05T09:49:58.517Z,971.32
2017-08-05T09:51:08.793Z,971.28
2017-08-05T09:52:19.090Z,971.28
2017-08-05T09:53:29.367Z,971.27
2017-08-05T09:54:39.653Z,971.25
2017-08-05T09:55:49.629Z,971.27
2017-08-05T09:56:59.600Z,971.25
2017-08-05T09:58:09.881Z,971.24
2017-08-05T09:59:19.525Z,971.23
2017-08-05T10:00:29.801Z,971.25
2017-08-05T10:01:40.077Z,971.26
2017-08-05T10:02:50.043Z,971.3
2017-08-05T10:04:00.320Z,971.25
2017-08-05T10:05:10.284Z,971.22
2017-08-05T10:06:20.566Z,971.26
2017-08-05T10:07:30.843Z,971.26
2017-08-05T10:08:40.489Z,971.26
2017-08-05T10:09:50.765Z,971.3
2017-08-05T10:11:00.745Z,971.3
2017-08-05T10:12:10.712Z,971.3
2017-08-05T10:13:20.991Z,971.32
2017-08-05T10:14:31.269Z,971.28
2017-08-05T10:15:41.232Z,971.31
2017-08-05T10:16:51.195Z,971.32
2017-08-05T10:18:01.473Z,971.3
2017-08-05T10:19:11.747Z,971.27
2017-08-05T10:20:21.709Z,971.26
2017-08-05T10:21:31.675Z,971.27
2017-08-05T10:22:41.637Z,971.23
2017-08-05T10:23:51.918Z,971.3
2017-08-05T10:25:02.199Z,971.28
2017-08-05T10:26:12.478Z,971.25
2017-08-05T10:27:22.440Z,971.26
2017-08-05T10:28:32.719Z,971.26
2017-08-05T10:29:42.991Z,971.28
2017-08-05T10:30:53.264Z,971.27
2017-08-05T10:32:03.546Z,971.33
2017-08-05T10:33:13.827Z,971.32
2017-08-05T10:34:24.102Z,971.29
2017-08-05T10:35:34.381Z,971.34
2017-08-05T10:36:44.344Z,971.27
2017-08-05T10:37:54.689Z,971.24
2017-08-05T10:39:04.961Z,971.23
2017-08-05T10:40:15.248Z,971.29
2017-08-05T10:41:25.211Z,971.27
2017-08-05T10:42:35.485Z,971.28
2017-08-05T10:43:45.763Z,971.33
2017-08-05T10:44:55.734Z,971.32
2017-08-05T10:46:05.705Z,971.31
2017-08-05T10:47:15.668Z,971.29
2017-08-05T10:48:25.944Z,971.34
2017-08-05T10:49:36.213Z,971.31
2017-08-05T10:50:46.217Z,971.33
2017-08-05T10:51:56.492Z,971.35
2017-08-05T10:53:06.776Z,971.33
2017-08-05T10:54:16.740Z,971.39
2017-08-05T10:55:26.713Z,971.32
2017-08-05T10:56:36.991Z,971.34
2017-08-05T10:57:47.262Z,971.35
2017-08-05T10:58:57.235Z,971.38
2017-08-05T11:00:07.512Z,971.38
2017-08-05T11:01:17.786Z,971.36
2017-08-05T11:02:27.751Z,971.41
2017-08-05T11:03:37.718Z,971.39
2017-08-05T11:04:48.021Z,971.41
2017-08-05T11:05:58.315Z,971.41
2017-08-05T11:07:08.278Z,971.39
2017-08-05T11:08:17.611Z,971.38
2017-08-05T11:09:27.598Z,971.42
2017-08-05T11:10:37.879Z,971.4
2017-08-05T11:11:48.158Z,971.42
2017-08-05T11:12:58.439Z,971.44
2017-08-05T11:14:08.723Z,971.47
2017-08-05T11:15:18.691Z,971.49
2017-08-05T11:16:28.967Z,971.48
2017-08-05T11:17:38.927Z,971.53
2017-08-05T11:18:48.891Z,971.51
2017-08-05T11:19:59.162Z,971.46
2017-08-05T11:21:09.445Z,971.48
2017-08-05T11:22:19.726Z,971.46
2017-08-05T11:23:29.684Z,971.48
2017-08-05T11:24:39.957Z,971.52
2017-08-05T11:25:49.614Z,971.5
2017-08-05T11:26:59.579Z,971.54
2017-08-05T11:28:09.540Z,971.5
2017-08-05T11:29:19.810Z,971.53
2017-08-05T11:30:29.772Z,971.56
2017-08-05T11:31:40.053Z,971.58
2017-08-05T11:32:50.332Z,971.61
2017-08-05T11:34:00.637Z,971.59
2017-08-05T11:35:10.614Z,971.63
2017-08-05T11:36:20.889Z,971.71
2017-08-05T11:37:31.164Z,971.72
2017-08-05T11:38:41.449Z,971.76
2017-08-05T11:39:51.726Z,971.73
2017-08-05T11:41:02.009Z,971.69
2017-08-05T11:42:12.290Z,971.62
2017-08-05T11:43:22.582Z,971.66
2017-08-05T11:44:32.863Z,971.66
2017-08-05T11:45:43.148Z,971.66
2017-08-05T11:46:53.122Z,971.57
2017-08-05T11:48:03.403Z,971.64
2017-08-05T11:49:13.689Z,971.59
2017-08-05T11:50:23.971Z,971.66
2017-08-05T11:51:33.939Z,971.63
2017-08-05T11:52:44.241Z,971.6
2017-08-05T11:53:54.526Z,971.63
2017-08-05T11:55:04.191Z,971.6
2017-08-05T11:56:14.167Z,971.66
2017-08-05T11:57:24.456Z,971.55
2017-08-05T11:58:34.745Z,971.68
2017-08-05T11:59:45.129Z,971.64
2017-08-05T12:00:54.791Z,971.61
2017-08-05T12:02:05.078Z,971.62
2017-08-05T12:03:15.368Z,971.65
2017-08-05T12:04:25.340Z,971.66
2017-08-05T12:05:35.312Z,971.69
2017-08-05T12:06:45.606Z,971.6
2017-08-05T12:07:55.900Z,971.72
2017-08-05T12:09:05.874Z,971.69
2017-08-05T12:10:16.168Z,971.71
2017-08-05T12:11:26.458Z,971.58
2017-08-05T12:12:36.751Z,971.63
2017-08-05T12:13:47.043Z,971.66
2017-08-05T12:14:57.332Z,971.71
2017-08-05T12:16:07.002Z,971.6
2017-08-05T12:17:17.297Z,971.55
2017-08-05T12:18:27.273Z,971.64
2017-08-05T12:19:37.258Z,971.61
2017-08-05T12:20:47.550Z,971.54
2017-08-05T12:21:57.218Z,971.57
2017-08-05T12:23:07.518Z,971.66
2017-08-05T12:24:17.494Z,971.62
2017-08-05T12:25:27.783Z,971.48
2017-08-05T12:26:38.082Z,971.56
2017-08-05T12:27:48.373Z,971.54
2017-08-05T12:28:58.668Z,971.61
2017-08-05T12:30:08.972Z,971.51
2017-08-05T12:31:18.949Z,971.5
2017-08-05T12:32:29.237Z,971.55
2017-08-05T12:33:39.530Z,971.56
2017-08-05T12:34:49.821Z,971.64
2017-08-05T12:36:00.118Z,971.6
2017-08-05T12:37:10.096Z,971.64
2017-08-05T12:38:20.392Z,971.64
2017-08-05T12:39:30.683Z,971.65
2017-08-05T12:40:40.981Z,971.6
2017-08-05T12:41:51.321Z,971.69
2017-08-05T12:43:01.618Z,971.66
2017-08-05T12:44:11.910Z,971.69
2017-08-05T12:45:21.890Z,971.72
2017-08-05T12:46:34.428Z,971.59
2017-08-05T12:47:44.726Z,971.5
2017-08-05T12:48:55.028Z,971.49
2017-08-05T12:50:05.324Z,971.53
2017-08-05T12:51:15.305Z,971.62
2017-08-05T12:52:25.604Z,971.62
2017-08-05T12:53:35.579Z,971.63
2017-08-05T12:54:45.879Z,971.84
2017-08-05T12:55:56.182Z,971.9
2017-08-05T12:57:06.479Z,971.78
2017-08-05T12:58:16.770Z,971.74
2017-08-05T12:59:27.061Z,971.81
2017-08-05T13:00:37.354Z,971.73
2017-08-05T13:01:47.330Z,971.77
2017-08-05T13:02:57.304Z,971.94
2017-08-05T13:04:07.602Z,971.9
2017-08-05T13:05:17.581Z,971.92
2017-08-05T13:06:27.559Z,971.82
2017-08-05T13:07:37.849Z,971.77
2017-08-05T13:08:48.152Z,971.89
2017-08-05T13:09:58.132Z,971.85
2017-08-05T13:11:08.111Z,971.98
2017-08-05T13:12:18.405Z,971.94
2017-08-05T13:13:28.702Z,972.04
2017-08-05T13:14:38.680Z,972.09
2017-08-05T13:15:48.969Z,972.22
2017-08-05T13:16:58.956Z,972.15
2017-08-05T13:18:09.253Z,972.12
2017-08-05T13:19:19.548Z,972.01
2017-08-05T13:20:29.532Z,971.95
2017-08-05T13:21:39.196Z,972.03
2017-08-05T13:22:49.189Z,972.05
2017-08-05T13:23:59.480Z,972.09
2017-08-05T13:25:09.465Z,972
2017-08-05T13:26:19.446Z,971.97
2017-08-05T13:27:29.737Z,971.97
2017-08-05T13:28:39.718Z,971.97
2017-08-05T13:29:50.011Z,971.98
2017-08-05T13:30:59.995Z,971.9
2017-08-05T13:32:10.289Z,971.92
2017-08-05T13:33:20.581Z,971.93
2017-08-05T13:34:30.562Z,971.9
2017-08-05T13:35:40.551Z,971.96
2017-08-05T13:36:50.844Z,971.92
2017-08-05T13:38:01.137Z,971.93
2017-08-05T13:39:11.430Z,971.96
2017-08-05T13:40:21.411Z,972.03
2017-08-05T13:41:31.396Z,971.96
2017-08-05T13:42:41.691Z,971.97
2017-08-05T13:43:51.980Z,971.93
2017-08-05T13:45:02.272Z,971.86
2017-08-05T13:46:12.579Z,971.81
2017-08-05T13:47:22.573Z,971.8
2017-08-05T13:48:32.870Z,971.73
2017-08-05T13:49:42.868Z,971.66
2017-08-05T13:50:52.846Z,971.81
2017-08-05T13:52:02.860Z,971.8
2017-08-05T13:53:12.846Z,971.93
2017-08-05T13:54:23.142Z,972
2017-08-05T13:55:33.439Z,972
2017-08-05T13:56:43.732Z,972.02
2017-08-05T13:57:54.027Z,972.11
2017-08-05T13:59:04.005Z,972.09
2017-08-05T14:00:14.302Z,972.19
2017-08-05T14:01:24.290Z,972.35
2017-08-05T14:02:34.278Z,972.32
2017-08-05T14:03:44.574Z,972.22
2017-08-05T14:04:54.883Z,972.04
2017-08-05T14:06:05.199Z,971.83
2017-08-05T14:07:15.494Z,971.97
2017-08-05T14:08:25.159Z,972.3
2017-08-05T14:09:35.177Z,972.3
2017-08-05T14:10:45.472Z,972.33
2017-08-05T14:11:55.762Z,972.31
2017-08-05T14:13:06.062Z,972.3
2017-08-05T14:14:16.048Z,972.27
2017-08-05T14:15:26.351Z,972.24
2017-08-05T14:16:36.330Z,972.2
2017-08-05T14:17:46.632Z,972.26
2017-08-05T14:18:56.610Z,972.3
2017-08-05T14:20:06.903Z,972.18
2017-08-05T14:21:16.883Z,972.17
2017-08-05T14:22:26.858Z,972.33
2017-08-05T14:23:36.205Z,972.4
2017-08-05T14:24:46.191Z,972.36
2017-08-05T14:25:56.479Z,972.32
2017-08-05T14:27:06.454Z,972.34
2017-08-05T14:28:16.430Z,972.37
2017-08-05T14:29:26.415Z,972.41
2017-08-05T14:30:36.394Z,972.44
2017-08-05T14:31:46.687Z,972.41
2017-08-05T14:32:56.660Z,972.37
2017-08-05T14:34:06.640Z,972.47
2017-08-05T14:35:16.930Z,972.51
2017-08-05T14:36:26.907Z,972.47
2017-08-05T14:37:37.202Z,972.53